Francisco Oliveira

Chefscout - Moreirense
19 Aug 2027
Donnerstag
Verarbeitung

Persönlichkeit

Anpassungsfähigkeit (11) Ehrgeiz (5) Kontroverse (13) Loyalität (19) Druck (4) Professionalität (5) Fairness (7) Temperament (2)

Profil

Trainerstil Demokratisch
Lizenz Kontinentale B
Entschlossenheit 4
Menschenführung 12
Motivation 7
Disziplin 12
Arbeitszufriedenheit
100%
Ermüdung
0%
Rolle Chefscout
Gehalt 52.7K p/W
Vertrag 14.03.2028

Leistung

Verhalten Gut
Trainingseffektivität
49%
Spielerentwicklung
30%
Verletzungsprävention
30%
Taktische Umsetzung
50%

Letzte Ereignisse

Nahm an einer Scouting-Besprechung teil jetzt
Nahm an einer Scouting-Besprechung teil jetzt
Empfahl ein Transferziel jetzt
Empfahl ein Transferziel jetzt
Empfahl ein Transferziel jetzt
Empfahl ein Transferziel 7T her
Empfahl ein Transferziel 7T her
Empfahl ein Transferziel 7T her

Aktuell beobachtet

204
Spieler Verein Status Fähigkeit Vertrauen Beobachtet Zuletzt beobachtet Letzte Stimme
Paulité Lusitânia Lourosa Aktiv 111 / 116 76% 1 16.08.2027 Befürworten
Jesús Rodríguez Como Aktiv 146 / 146 40% 1 03.06.2027 -
Rodrigo Mora AS Roma Aktiv 135 / 137 40% 1 03.06.2027 -
Gianluca Prestianni Benfica Aktiv 131 / 150 40% 1 03.06.2027 -
Dion Beljo Standard Liege Aktiv 131 / 132 66% 1 01.06.2027 Befürworten
Marezi Portsmouth Aktiv 121 / 129 40% 2 30.05.2027 -
Tom Cannon Sheffield United Aktiv 132 / 136 40% 5 30.05.2027 -
Dominic Calvert-Lewin Leeds United Aktiv 138 / 151 40% 4 30.05.2027 -
Morgan Whittaker Middlesbrough Aktiv 128 / 124 40% 4 28.05.2027 -
Hazeem Bakre Crawley Town Aktiv 78 / 84 40% 1 28.05.2027 -
Calum Agius Crewe Alexandra Aktiv 89 / 100 40% 1 28.05.2027 -
Jason Knight Bristol City Aktiv 129 / 129 40% 1 28.05.2027 -
Dango Ouattara Brentford Aktiv 144 / 136 40% 7 25.05.2027 -
Patson Daka Leicester City Aktiv 131 / 115 40% 5 25.05.2027 -
Mees Rijks Bristol Rovers Aktiv 112 / 107 40% 2 24.05.2027 -
Christian Saydee Wigan Athletic Aktiv 117 / 121 40% 1 24.05.2027 -
Gustavo Silva Vitoria Guimaraes Aktiv 130 / 124 40% 9 22.05.2027 -
Elijah Adebayo Luton Town Aktiv 131 / 129 40% 4 22.05.2027 -
Tommy Conway Middlesbrough Aktiv 127 / 138 40% 3 21.05.2027 -
Petar Musa Adana Demirspor Aktiv 139 / 146 40% 3 20.05.2027 -
Joe Gelhardt Hull City Aktiv 138 / 128 40% 2 20.05.2027 -
Giacomo Raspadori Atalanta Aktiv 149 / 154 40% 11 19.05.2027 -
Vinícius Lopes Santa Clara Aktiv 119 / 124 40% 3 19.05.2027 -
Jayden Addai Como Aktiv 129 / 131 40% 2 18.05.2027 -
Caleb Yirenkyi Coventry City Aktiv 140 / 144 40% 1 18.05.2027 -
Tomás Peixoto Porto Aktiv 92 / 81 40% 1 18.05.2027 -
George Hirst Stoke City Aktiv 136 / 128 40% 3 16.05.2027 -
Ismaïla Sarr Crystal Palace Aktiv 147 / 148 40% 4 16.05.2027 -
Georginio Rutter Brighton Aktiv 154 / 152 40% 12 15.05.2027 -
Roberto Fernández Braga Aktiv 150 / 142 40% 13 15.05.2027 Beobachten
Zé Leite Leixões Aktiv 123 / 111 40% 5 15.05.2027 -
Callum O'Hare Sheffield United Aktiv 132 / 136 40% 5 15.05.2027 -
Keinan Davis Udinese Aktiv 141 / 130 40% 1 15.05.2027 -
Ollie Tanner Cardiff City Aktiv 111 / 112 40% 2 14.05.2027 -
Ali Ahmed Norwich City Aktiv 129 / 116 40% 2 14.05.2027 -
Oli McBurnie Hull City Aktiv 132 / 134 40% 6 13.05.2027 -
Will Lankshear Middlesbrough Aktiv 120 / 130 40% 7 11.05.2027 -
Quinten Timber Crystal Palace Aktiv 156 / 149 40% 2 11.05.2027 -
Thiago Brentford Aktiv 146 / 145 40% 3 11.05.2027 -
Kasey McAteer Ipswich Town Aktiv 131 / 124 40% 2 11.05.2027 -
Stephen Humphrys Bradford City Aktiv 114 / 103 40% 1 11.05.2027 -
Derensili Sanches Fernandes Huddersfield Town Aktiv 131 / 126 40% 2 10.05.2027 -
André Clovis Leiria Aktiv 114 / 115 40% 3 07.05.2027 -
Yousef Salech Cardiff City Aktiv 128 / 135 40% 5 07.05.2027 -
Richard Koné Queens Park Rangers Aktiv 126 / 131 40% 4 05.05.2027 -
Aune Heggebø West Bromwich Albion Aktiv 129 / 123 40% 5 05.05.2027 -
Sam Nombe Milton Keynes Dons Aktiv 107 / 108 40% 2 05.05.2027 -
Othmane Maamma Watford Aktiv 121 / 128 40% 3 04.05.2027 -
Zian Flemming Ipswich Town Aktiv 127 / 133 40% 2 04.05.2027 -
Lorougnon Gohi Académico de Viseu Aktiv 116 / 114 40% 1 04.05.2027 -
Pau Víctor AVS Aktiv 140 / 136 40% 1 03.05.2027 -
Dom Ballard Leyton Orient Aktiv 121 / 128 40% 8 01.05.2027 -
Tyrese Campbell Sheffield United Aktiv 130 / 129 40% 3 28.04.2027 -
Lorenzo Colombo Genoa Aktiv 133 / 131 40% 2 28.04.2027 -
Stevan Manuel Benfica Aktiv 101 / 109 40% 1 27.04.2027 -
Lovro Zvonarek Estrela da Amadora Aktiv 116 / 122 40% 1 27.04.2027 -
Scott Twine Bristol City Aktiv 122 / 131 40% 2 24.04.2027 -
Naïs Djouahra Arouca Aktiv 120 / 135 40% 1 24.04.2027 -
Lewis Morgan SuperSport United Aktiv 118 / 117 40% 8 19.04.2027 -
Mohamed-Ali Cho Hull City Aktiv 134 / 139 40% 2 19.04.2027 -
Luis Quintero Torreense Aktiv 129 / 131 40% 2 18.04.2027 -
Finn Azaz Southampton Aktiv 131 / 132 40% 3 18.04.2027 -
Welington Southampton Aktiv 134 / 127 40% 1 18.04.2027 -
Figueiredo Alverca Aktiv 134 / 123 40% 6 15.04.2027 -
Kwadwo Baah Watford Aktiv 131 / 136 40% 2 15.04.2027 -
Cian Ashford Cardiff City Aktiv 116 / 114 40% 2 14.04.2027 -
Che Adams Torino Aktiv 141 / 147 40% 1 09.04.2027 -
Aaron Collins Milton Keynes Dons Aktiv 122 / 116 40% 1 08.04.2027 -
Kevin Fulham Aktiv 145 / 158 40% 2 06.04.2027 -
Manu Pozo Torreense Aktiv 115 / 132 40% 3 06.04.2027 -
Diego Rossi Monterrey Aktiv 139 / 123 40% 4 06.04.2027 -
Mikkel Damsgaard Brentford Aktiv 146 / 149 40% 4 05.04.2027 -
Hugo Cuypers Monterrey Aktiv 130 / 139 40% 3 01.04.2027 -
Ronan Hale Gillingham Aktiv 115 / 109 40% 2 01.04.2027 -
Víctor Gómez Braga Aktiv 143 / 147 40% 6 29.03.2027 -
Makan Aïko Tondela Aktiv 121 / 118 40% 3 29.03.2027 -
Razvan Balasa Crvena Zvezda Aktiv 147 / 135 40% 5 29.03.2027 -
Tom Fellows Southampton Aktiv 131 / 125 40% 3 28.03.2027 -
Matt O'Riley Brighton Aktiv 145 / 147 40% 7 25.03.2027 -
Themba Ngcobo SuperSport United Aktiv 113 / 132 40% 3 23.03.2027 -
Zeki Amdouni Burnley Aktiv 139 / 124 40% 1 23.03.2027 -
Ozziel Herrera Tigres Aktiv 127 / 119 40% 9 22.03.2027 -
Chuchu Ramírez Nacional Aktiv 139 / 117 40% 4 22.03.2027 -
Luis Vázquez Birmingham Aktiv 125 / 119 40% 3 18.03.2027 -
Óscar Mingueza Crystal Palace Aktiv 153 / 153 40% 3 16.03.2027 -
Jack McGlynn Stoke City Aktiv 128 / 135 40% 1 16.03.2027 -
Alfonso Trezza Arouca Aktiv 119 / 127 40% 1 14.03.2027 -
Juninho Pumas UNAM Aktiv 139 / 111 40% 5 13.03.2027 -
Edarlyn Reyes Arsenal Tula Aktiv 118 / 98 40% 1 12.03.2027 -
Moussa Dembélé CR Belouizdad Aktiv 129 / 129 40% 1 11.03.2027 -
Marcelo Allende Mamelodi Sundowns Aktiv 126 / 143 40% 6 10.03.2027 -
Tshepang Moremi Orlando Pirates Aktiv 127 / 125 40% 4 10.03.2027 -
Duk Atlas Aktiv 125 / 112 40% 1 10.03.2027 -
Evidence Makgopa Orlando Pirates Aktiv 122 / 104 40% 2 07.03.2027 -
Santi García Gil Vicente Aktiv 133 / 140 40% 2 06.03.2027 -
André Silva Tondela Aktiv 123 / 131 40% 5 06.03.2027 -
Jhojan Julio Queretaro Aktiv 126 / 118 40% 1 03.03.2027 -
Wilson Isidor Sunderland Aktiv 136 / 141 40% 1 02.03.2027 -
Soufiane Rahimi Guadalajara Aktiv 148 / 134 40% 1 22.02.2027 -
Romelu Castagne KV Oostende Aktiv 137 / 125 40% 2 15.02.2027 -
Dawda Camara Alverca Aktiv 118 / 109 40% 1 15.02.2027 -
Adriano Bertaccini Anderlecht Aktiv 133 / 125 40% 1 10.02.2027 -
Lucas Di Yorio Santos Laguna Aktiv 111 / 110 40% 1 09.02.2027 -
Ilyas Ansah Hull City Aktiv 128 / 128 40% 1 02.02.2027 -
Adnan Courtois KV Oostende Aktiv 141 / 133 40% 1 01.02.2027 -
Tariq Lamptey Queens Park Rangers Aktiv 133 / 131 40% 1 25.01.2027 -
Yehor Yarmoliuk Brentford Aktiv 146 / 156 40% 1 25.01.2027 -
Rômulo Tigres Aktiv 130 / 137 40% 1 25.01.2027 -
Konstantin Tyukavin Inter Aktiv 132 / 133 66% 1 01.01.2027 Befürworten
Andreas Trimmel Red Bull Salzburg Aktiv 131 / 131 60% 1 01.01.2027 Befürworten
Amar Memić Casa Pia Verhandlung 127 / 128 62% 1 01.01.2027 Befürworten
Ilay Camara Anderlecht Aktiv 137 / 131 40% 1 31.12.2026 -
Zak Swanson Bradford City Aktiv 113 / 109 40% 1 31.12.2026 -
Mduduzi Shabalala Kaizer Chiefs Aktiv 117 / 122 40% 1 30.12.2026 -
Ruben van Bommel Ferencvaros Aktiv 141 / 129 40% 1 29.12.2026 -
Assane Diao Lazio Aktiv 146 / 137 40% 2 28.12.2026 -
Leo Castledine Middlesbrough Aktiv 120 / 139 40% 1 28.12.2026 -
Diego Lainez Tigres Aktiv 127 / 115 40% 7 25.12.2026 -
Jack Rudoni Coventry City Aktiv 127 / 136 40% 4 25.12.2026 -
Endrick Real Madrid Aktiv 147 / 161 40% 3 24.12.2026 -
Senny Mayulu Paris Saint-Germain Aktiv 137 / 154 40% 1 24.12.2026 -
Daniel Kyerewaa Reading Aktiv 110 / 119 40% 1 23.12.2026 -
Amine Adli Bournemouth Aktiv 145 / 135 40% 1 21.12.2026 -
Mandla Erasmus SuperSport United Aktiv 110 / 131 40% 1 21.12.2026 -
Gustavo Ferreira Benfica Aktiv 87 / 95 40% 1 19.12.2026 -
Gabriel Melo Dugopolje Aktiv 73 / 103 40% 2 15.12.2026 -
Thulani Erasmus Platinum Stars Aktiv 104 / 109 40% 2 14.12.2026 -
Leon Grgić Sturm Graz Aktiv 117 / 125 40% 1 11.12.2026 -
Toni Tamarit Alverca Aktiv 112 / 109 40% 2 08.12.2026 -
Rayan Bournemouth Aktiv 135 / 144 40% 2 08.12.2026 -
Rico Lewis Manchester City Aktiv 144 / 157 40% 2 05.12.2026 -
Yan Diomandé Real Madrid Aktiv 145 / 146 40% 1 04.12.2026 -
Reda Khadra Qarabag Aktiv 138 / 142 40% 1 02.12.2026 -
Jordan van der Gaag Leiria Aktiv 119 / 104 40% 2 27.11.2026 -
Mateus Mané Manchester United Aktiv 124 / 134 40% 4 26.11.2026 -
Noni Madueke Arsenal Aktiv 149 / 164 40% 2 26.11.2026 -
Pinna Fortaleza Aktiv 86 / 93 40% 1 23.11.2026 -
Jonás Luna Santa Clara Aktiv 116 / 119 40% 1 22.11.2026 -
David Kalokoh Ajax Aktiv 113 / 115 40% 1 22.11.2026 -
Adam Wharton Crystal Palace Aktiv 146 / 162 40% 2 17.11.2026 -
Jadon Sancho Manchester United Aktiv 155 / 145 40% 1 17.11.2026 -
Christian Krasnodar Aktiv 145 / 123 40% 3 16.11.2026 -
Isaiah Jones Luton Town Aktiv 121 / 125 40% 1 16.11.2026 -
Rocco Vata Watford Aktiv 121 / 118 40% 4 15.11.2026 -
Vivaldo Semedo Watford Aktiv 114 / 124 40% 1 14.11.2026 -
Mayckel Lahdo Malmo FF Aktiv 125 / 112 40% 1 12.11.2026 -
Pedro Porro Tottenham Aktiv 146 / 154 40% 4 10.11.2026 -
Mario Dorgeles Braga Aktiv 125 / 132 40% 1 09.11.2026 -
Iwan Morgan Grimsby Town Aktiv 101 / 115 40% 5 08.11.2026 -
Ezekiel Kwame Alladoh Philadelphia Union Aktiv 113 / 112 40% 1 08.11.2026 -
Darren Yapi Colorado Rapids Aktiv 97 / 125 40% 1 08.11.2026 -
William Gomes Porto Aktiv 137 / 154 40% 1 05.11.2026 -
Félix Lemaréchal Club Brugge Aktiv 137 / 145 40% 2 03.11.2026 -
Ryan Sessegnon Fulham Aktiv 144 / 142 40% 2 02.11.2026 -
Stanley Mills Oxford United Aktiv 125 / 120 40% 1 02.11.2026 -
Xavi Simons Tottenham Aktiv 153 / 156 40% 1 01.11.2026 -
Tomás O'Connor Gimnasia y Esgrima Aktiv 123 / 119 40% 3 30.10.2026 -
Benjamin Kanurić SV Ried Aktiv 110 / 118 40% 1 30.10.2026 -
Soma Anzai FC Tokyo Aktiv 122 / 103 40% 4 28.10.2026 -
Beni Jetour Felgueiras Aktiv 85 / 90 30% 1 / 1m 28.10.2026 -
Yeremy Pino Crystal Palace Aktiv 143 / 138 40% 1 28.10.2026 -
Alan Lescano Argentinos Juniors Aktiv 125 / 134 40% 1 25.10.2026 -
Santiago Rodríguez Columbus Crew Aktiv 133 / 133 40% 2 24.10.2026 -
Gonzalo Fulham Aktiv 138 / 140 40% 1 23.10.2026 -
Carlos Vicente Birmingham Aktiv 147 / 132 40% 1 23.10.2026 -
Santiago Montiel Independiente Aktiv 129 / 123 40% 2 22.10.2026 -
Tristan Degreef Anderlecht Aktiv 118 / 120 40% 1 22.10.2026 -
Youssoufa Moukoko FC Copenhagen Aktiv 114 / 124 40% 1 21.10.2026 -
Hassan Beja AFC Leopards Aktiv 82 / 77 40% 1 21.10.2026 -
Márcio Mendes Pandurii Aktiv 122 / 120 40% 1 21.10.2026 -
Patrick Preciado Deportivo Pasto Aktiv 104 / 118 40% 1 18.10.2026 -
Ezequiel Bullaude Santos Laguna Aktiv 116 / 109 40% 1 16.10.2026 -
De Lucca Rapid Wien Aktiv 122 / 113 40% 2 15.10.2026 -
Alexis Cuello San Lorenzo Aktiv 125 / 120 40% 1 14.10.2026 -
Matías Fernández Independiente Rivadavia Aktiv 125 / 118 40% 1 13.10.2026 -
Antonio Galeano Remo Stars Aktiv 126 / 119 40% 1 07.10.2026 -
Tyler Adams Bournemouth Aktiv 155 / 140 40% 3 05.10.2026 -
Joaquín Gho Argentinos Juniors Aktiv 123 / 124 40% 1 05.10.2026 -
Riqui Puig LA Galaxy Aktiv 127 / 117 40% 2 04.10.2026 -
Marco Pašalić Orlando City Aktiv 126 / 134 40% 1 04.10.2026 -
Anton Stach Leeds United Aktiv 155 / 136 40% 1 02.10.2026 -
Johan Martínez Deportivo Cali Aktiv 114 / 122 40% 1 30.09.2026 -
Callum Hudson-Odoi Nottingham Forest Aktiv 144 / 142 40% 1 29.09.2026 -
Joaquín Pereyra Minnesota United FC Aktiv 122 / 114 40% 1 27.09.2026 -
Riley McGree Middlesbrough Aktiv 129 / 138 40% 1 26.09.2026 -
Rafik Guitane Estoril Praia Aktiv 138 / 127 40% 1 26.09.2026 -
Griffin Yow New England Revolution Aktiv 128 / 134 40% 1 24.09.2026 -
Victor Froholdt Porto Aktiv 147 / 171 40% 1 24.09.2026 -
Lukas Zuccarello Vasco da Gama Aktiv 101 / 108 40% 1 24.09.2026 -
Alexei Dominguez Pachuca Aktiv 111 / 93 40% 1 21.09.2026 -
Roméo Beney Famalicao Aktiv 109 / 124 40% 1 20.09.2026 -
Arthur Maron São Paulo Aktiv 95 / 95 40% 1 18.09.2026 -
Renzo Machado Liverpool Montevideo Aktiv 112 / 119 40% 1 17.09.2026 -
Rodrigo González Mitre Aktiv 115 / 116 40% 1 14.09.2026 -
Nico O'Reilly Manchester City Aktiv 152 / 148 40% 1 14.09.2026 -
Tiago Palacios Estudiantes Aktiv 128 / 134 40% 1 11.09.2026 -
Jan Carlos Ángulo Deportes Tolima Aktiv 119 / 119 40% 1 11.09.2026 -
Jahkeele Marshall-Rutty New York Red Bulls Aktiv 121 / 131 40% 1 11.09.2026 -
Leandro Lozano Boca Juniors Aktiv 130 / 134 40% 1 11.09.2026 -
Amin Boudri Los Angeles Football Club Aktiv 114 / 140 40% 1 09.09.2026 -
Marquinhos Spartak Moscow Aktiv 130 / 143 40% 1 08.09.2026 -
Conrad Wallem Austria Wien Aktiv 132 / 133 40% 1 08.09.2026 -
Juan Pablo Domínguez Leon Aktiv 136 / 110 40% 1 07.09.2026 -
Fidel Ambríz Monterrey Aktiv 137 / 131 40% 1 07.09.2026 -